sensor_id;sensor_type;location;lat;lon;timestamp;P1;durP1;ratioP1;P2;durP2;ratioP2
64235;SDS011;50564;47.402;9.740;2023-12-20T00:03:47;10.63;;;6.93;;
64235;SDS011;50564;47.402;9.740;2023-12-20T00:08:47;11.55;;;8.00;;
64235;SDS011;50564;47.402;9.740;2023-12-20T00:13:48;17.52;;;9.90;;
64235;SDS011;50564;47.402;9.740;2023-12-20T00:18:48;15.25;;;10.77;;
64235;SDS011;50564;47.402;9.740;2023-12-20T00:23:49;15.02;;;10.75;;
64235;SDS011;50564;47.402;9.740;2023-12-20T00:28:50;16.02;;;11.05;;
64235;SDS011;50564;47.402;9.740;2023-12-20T00:33:50;12.90;;;9.43;;
64235;SDS011;50564;47.402;9.740;2023-12-20T00:38:51;15.68;;;9.65;;
64235;SDS011;50564;47.402;9.740;2023-12-20T00:43:52;12.75;;;9.10;;
64235;SDS011;50564;47.402;9.740;2023-12-20T00:48:52;14.15;;;9.77;;
64235;SDS011;50564;47.402;9.740;2023-12-20T00:53:53;13.63;;;9.60;;
64235;SDS011;50564;47.402;9.740;2023-12-20T00:58:54;14.80;;;9.65;;
64235;SDS011;50564;47.402;9.740;2023-12-20T01:03:55;13.68;;;8.95;;
64235;SDS011;50564;47.402;9.740;2023-12-20T01:08:56;14.57;;;9.98;;
64235;SDS011;50564;47.402;9.740;2023-12-20T01:13:56;12.52;;;8.52;;
64235;SDS011;50564;47.402;9.740;2023-12-20T01:18:57;11.98;;;8.85;;
64235;SDS011;50564;47.402;9.740;2023-12-20T01:23:57;13.90;;;8.52;;
64235;SDS011;50564;47.402;9.740;2023-12-20T01:28:58;11.73;;;7.97;;
64235;SDS011;50564;47.402;9.740;2023-12-20T01:33:59;14.27;;;8.63;;
64235;SDS011;50564;47.402;9.740;2023-12-20T01:38:59;11.30;;;6.78;;
64235;SDS011;50564;47.402;9.740;2023-12-20T01:44:00;12.52;;;6.82;;
64235;SDS011;50564;47.402;9.740;2023-12-20T01:49:01;9.38;;;6.15;;
64235;SDS011;50564;47.402;9.740;2023-12-20T01:54:01;10.38;;;6.43;;
64235;SDS011;50564;47.402;9.740;2023-12-20T01:59:02;10.18;;;5.28;;
64235;SDS011;50564;47.402;9.740;2023-12-20T02:04:04;8.73;;;4.97;;
64235;SDS011;50564;47.402;9.740;2023-12-20T02:09:05;11.40;;;6.15;;
64235;SDS011;50564;47.402;9.740;2023-12-20T02:14:05;10.30;;;6.45;;
64235;SDS011;50564;47.402;9.740;2023-12-20T02:19:09;10.48;;;7.53;;
64235;SDS011;50564;47.402;9.740;2023-12-20T02:24:13;11.17;;;7.63;;
64235;SDS011;50564;47.402;9.740;2023-12-20T02:29:14;10.23;;;7.60;;
64235;SDS011;50564;47.402;9.740;2023-12-20T02:34:15;11.18;;;8.05;;
64235;SDS011;50564;47.402;9.740;2023-12-20T02:39:15;15.13;;;8.05;;
64235;SDS011;50564;47.402;9.740;2023-12-20T02:44:16;11.95;;;7.88;;
64235;SDS011;50564;47.402;9.740;2023-12-20T02:49:16;12.43;;;8.85;;
64235;SDS011;50564;47.402;9.740;2023-12-20T02:54:17;15.20;;;9.82;;
64235;SDS011;50564;47.402;9.740;2023-12-20T02:59:17;11.98;;;8.90;;
64235;SDS011;50564;47.402;9.740;2023-12-20T03:04:18;14.30;;;10.38;;
64235;SDS011;50564;47.402;9.740;2023-12-20T03:09:19;13.32;;;8.85;;
64235;SDS011;50564;47.402;9.740;2023-12-20T03:14:19;12.93;;;9.40;;
64235;SDS011;50564;47.402;9.740;2023-12-20T03:19:20;14.77;;;9.95;;
64235;SDS011;50564;47.402;9.740;2023-12-20T03:24:20;12.40;;;8.45;;
64235;SDS011;50564;47.402;9.740;2023-12-20T03:29:21;12.77;;;8.90;;
64235;SDS011;50564;47.402;9.740;2023-12-20T03:34:22;12.57;;;8.30;;
64235;SDS011;50564;47.402;9.740;2023-12-20T03:39:22;12.75;;;7.82;;
64235;SDS011;50564;47.402;9.740;2023-12-20T03:44:23;10.68;;;7.68;;
64235;SDS011;50564;47.402;9.740;2023-12-20T03:49:23;11.10;;;7.50;;
64235;SDS011;50564;47.402;9.740;2023-12-20T03:54:24;10.77;;;7.15;;
64235;SDS011;50564;47.402;9.740;2023-12-20T03:59:25;12.32;;;8.27;;
64235;SDS011;50564;47.402;9.740;2023-12-20T04:04:25;11.05;;;7.90;;
64235;SDS011;50564;47.402;9.740;2023-12-20T04:09:26;12.68;;;8.30;;
64235;SDS011;50564;47.402;9.740;2023-12-20T04:14:26;12.35;;;8.10;;
64235;SDS011;50564;47.402;9.740;2023-12-20T04:19:27;11.30;;;7.95;;
64235;SDS011;50564;47.402;9.740;2023-12-20T04:24:28;9.38;;;6.38;;
64235;SDS011;50564;47.402;9.740;2023-12-20T04:29:28;13.68;;;8.27;;
64235;SDS011;50564;47.402;9.740;2023-12-20T04:34:29;8.48;;;5.95;;
64235;SDS011;50564;47.402;9.740;2023-12-20T04:39:29;9.07;;;5.43;;
64235;SDS011;50564;47.402;9.740;2023-12-20T04:44:30;8.10;;;5.47;;
64235;SDS011;50564;47.402;9.740;2023-12-20T04:49:31;10.38;;;5.43;;
64235;SDS011;50564;47.402;9.740;2023-12-20T04:54:31;8.73;;;5.68;;
64235;SDS011;50564;47.402;9.740;2023-12-20T04:59:32;7.97;;;4.85;;
64235;SDS011;50564;47.402;9.740;2023-12-20T05:04:32;7.65;;;5.90;;
64235;SDS011;50564;47.402;9.740;2023-12-20T05:09:33;8.45;;;5.55;;
64235;SDS011;50564;47.402;9.740;2023-12-20T05:14:34;9.32;;;5.30;;
64235;SDS011;50564;47.402;9.740;2023-12-20T05:19:34;10.65;;;7.32;;
64235;SDS011;50564;47.402;9.740;2023-12-20T05:24:35;11.95;;;8.57;;
64235;SDS011;50564;47.402;9.740;2023-12-20T05:29:36;14.55;;;10.30;;
64235;SDS011;50564;47.402;9.740;2023-12-20T05:34:36;13.52;;;9.88;;
64235;SDS011;50564;47.402;9.740;2023-12-20T05:39:37;19.75;;;14.82;;
64235;SDS011;50564;47.402;9.740;2023-12-20T05:44:41;16.77;;;12.10;;
64235;SDS011;50564;47.402;9.740;2023-12-20T05:49:41;13.02;;;8.50;;
64235;SDS011;50564;47.402;9.740;2023-12-20T05:54:43;14.13;;;8.82;;
64235;SDS011;50564;47.402;9.740;2023-12-20T05:59:44;12.18;;;8.40;;
64235;SDS011;50564;47.402;9.740;2023-12-20T06:04:44;9.70;;;6.25;;
64235;SDS011;50564;47.402;9.740;2023-12-20T06:09:45;9.68;;;7.00;;
64235;SDS011;50564;47.402;9.740;2023-12-20T06:14:46;9.02;;;6.03;;
64235;SDS011;50564;47.402;9.740;2023-12-20T06:19:46;9.55;;;6.57;;
64235;SDS011;50564;47.402;9.740;2023-12-20T06:24:48;10.07;;;6.85;;
64235;SDS011;50564;47.402;9.740;2023-12-20T06:29:48;8.23;;;5.50;;
64235;SDS011;50564;47.402;9.740;2023-12-20T06:34:49;7.68;;;5.18;;
64235;SDS011;50564;47.402;9.740;2023-12-20T06:39:50;12.18;;;6.53;;
64235;SDS011;50564;47.402;9.740;2023-12-20T06:44:50;11.10;;;7.00;;
64235;SDS011;50564;47.402;9.740;2023-12-20T06:49:51;10.38;;;7.43;;
64235;SDS011;50564;47.402;9.740;2023-12-20T06:54:52;7.47;;;4.35;;
64235;SDS011;50564;47.402;9.740;2023-12-20T06:59:53;7.47;;;4.57;;
64235;SDS011;50564;47.402;9.740;2023-12-20T07:04:53;6.10;;;3.78;;
64235;SDS011;50564;47.402;9.740;2023-12-20T07:09:54;7.35;;;3.28;;
64235;SDS011;50564;47.402;9.740;2023-12-20T07:14:55;8.93;;;5.35;;
64235;SDS011;50564;47.402;9.740;2023-12-20T07:19:56;4.85;;;3.47;;
64235;SDS011;50564;47.402;9.740;2023-12-20T07:24:57;5.13;;;3.10;;
64235;SDS011;50564;47.402;9.740;2023-12-20T07:29:58;4.82;;;2.67;;
64235;SDS011;50564;47.402;9.740;2023-12-20T07:34:59;4.72;;;3.33;;
64235;SDS011;50564;47.402;9.740;2023-12-20T07:39:59;3.15;;;2.13;;
64235;SDS011;50564;47.402;9.740;2023-12-20T07:45:00;3.08;;;1.73;;
64235;SDS011;50564;47.402;9.740;2023-12-20T07:50:01;5.05;;;2.63;;
64235;SDS011;50564;47.402;9.740;2023-12-20T07:55:02;2.83;;;1.50;;
64235;SDS011;50564;47.402;9.740;2023-12-20T08:00:04;2.45;;;2.00;;
64235;SDS011;50564;47.402;9.740;2023-12-20T08:05:05;2.05;;;1.33;;
64235;SDS011;50564;47.402;9.740;2023-12-20T08:10:06;1.67;;;1.42;;
64235;SDS011;50564;47.402;9.740;2023-12-20T08:15:07;1.98;;;1.20;;
64235;SDS011;50564;47.402;9.740;2023-12-20T08:20:08;1.52;;;0.80;;
64235;SDS011;50564;47.402;9.740;2023-12-20T08:25:09;1.42;;;0.80;;
64235;SDS011;50564;47.402;9.740;2023-12-20T08:30:10;1.63;;;1.40;;
64235;SDS011;50564;47.402;9.740;2023-12-20T08:35:11;3.35;;;1.70;;
64235;SDS011;50564;47.402;9.740;2023-12-20T08:40:12;2.30;;;1.50;;
64235;SDS011;50564;47.402;9.740;2023-12-20T08:45:12;7.72;;;4.22;;
64235;SDS011;50564;47.402;9.740;2023-12-20T08:50:13;3.28;;;1.90;;
64235;SDS011;50564;47.402;9.740;2023-12-20T08:55:15;5.18;;;2.53;;
64235;SDS011;50564;47.402;9.740;2023-12-20T09:00:18;10.15;;;5.38;;
64235;SDS011;50564;47.402;9.740;2023-12-20T09:05:21;5.32;;;3.15;;
64235;SDS011;50564;47.402;9.740;2023-12-20T09:10:22;5.00;;;2.83;;
64235;SDS011;50564;47.402;9.740;2023-12-20T09:15:26;2.40;;;1.55;;
64235;SDS011;50564;47.402;9.740;2023-12-20T09:20:27;0.80;;;0.80;;
64235;SDS011;50564;47.402;9.740;2023-12-20T09:25:28;0.85;;;0.80;;
64235;SDS011;50564;47.402;9.740;2023-12-20T09:30:30;2.08;;;1.30;;
64235;SDS011;50564;47.402;9.740;2023-12-20T09:35:31;4.55;;;2.33;;
64235;SDS011;50564;47.402;9.740;2023-12-20T09:40:32;2.58;;;1.40;;
64235;SDS011;50564;47.402;9.740;2023-12-20T09:45:35;4.57;;;2.20;;
64235;SDS011;50564;47.402;9.740;2023-12-20T09:50:36;9.77;;;5.55;;
64235;SDS011;50564;47.402;9.740;2023-12-20T09:55:37;13.27;;;7.82;;
64235;SDS011;50564;47.402;9.740;2023-12-20T10:00:38;11.52;;;8.43;;
64235;SDS011;50564;47.402;9.740;2023-12-20T10:05:39;11.13;;;7.45;;
64235;SDS011;50564;47.402;9.740;2023-12-20T10:10:40;12.50;;;8.65;;
64235;SDS011;50564;47.402;9.740;2023-12-20T10:15:40;13.90;;;8.60;;
64235;SDS011;50564;47.402;9.740;2023-12-20T10:20:41;18.15;;;8.88;;
64235;SDS011;50564;47.402;9.740;2023-12-20T10:25:58;21.85;;;10.55;;
64235;SDS011;50564;47.402;9.740;2023-12-20T10:30:59;22.05;;;11.75;;
64235;SDS011;50564;47.402;9.740;2023-12-20T10:36:00;19.15;;;11.38;;
64235;SDS011;50564;47.402;9.740;2023-12-20T10:41:01;20.95;;;12.48;;
64235;SDS011;50564;47.402;9.740;2023-12-20T10:46:07;24.48;;;15.00;;
64235;SDS011;50564;47.402;9.740;2023-12-20T10:51:08;22.30;;;14.52;;
64235;SDS011;50564;47.402;9.740;2023-12-20T10:56:09;23.42;;;14.70;;
64235;SDS011;50564;47.402;9.740;2023-12-20T11:01:19;14.10;;;10.02;;
64235;SDS011;50564;47.402;9.740;2023-12-20T11:06:26;9.07;;;6.43;;
64235;SDS011;50564;47.402;9.740;2023-12-20T11:17:07;14.02;;;7.38;;
64235;SDS011;50564;47.402;9.740;2023-12-20T11:22:08;6.10;;;4.10;;
64235;SDS011;50564;47.402;9.740;2023-12-20T11:27:09;7.65;;;4.40;;
64235;SDS011;50564;47.402;9.740;2023-12-20T11:37:30;6.85;;;4.30;;
64235;SDS011;50564;47.402;9.740;2023-12-20T11:42:42;6.75;;;4.07;;
64235;SDS011;50564;47.402;9.740;2023-12-20T11:47:47;7.97;;;3.95;;
64235;SDS011;50564;47.402;9.740;2023-12-20T11:52:52;7.15;;;4.43;;
64235;SDS011;50564;47.402;9.740;2023-12-20T11:57:54;13.30;;;9.20;;
64235;SDS011;50564;47.402;9.740;2023-12-20T12:02:55;13.05;;;8.82;;
64235;SDS011;50564;47.402;9.740;2023-12-20T12:07:57;14.88;;;9.13;;
64235;SDS011;50564;47.402;9.740;2023-12-20T12:12:58;21.80;;;10.88;;
64235;SDS011;50564;47.402;9.740;2023-12-20T12:17:59;16.40;;;9.80;;
64235;SDS011;50564;47.402;9.740;2023-12-20T12:23:00;15.32;;;8.73;;
64235;SDS011;50564;47.402;9.740;2023-12-20T12:28:02;10.38;;;7.00;;
64235;SDS011;50564;47.402;9.740;2023-12-20T12:33:03;12.32;;;6.22;;
64235;SDS011;50564;47.402;9.740;2023-12-20T12:38:06;7.28;;;4.88;;
64235;SDS011;50564;47.402;9.740;2023-12-20T12:43:16;8.07;;;5.40;;
64235;SDS011;50564;47.402;9.740;2023-12-20T12:48:20;6.80;;;4.28;;
64235;SDS011;50564;47.402;9.740;2023-12-20T12:53:20;12.48;;;5.45;;
64235;SDS011;50564;47.402;9.740;2023-12-20T12:58:24;10.15;;;6.80;;
64235;SDS011;50564;47.402;9.740;2023-12-20T13:03:26;8.85;;;6.03;;
64235;SDS011;50564;47.402;9.740;2023-12-20T13:08:27;7.25;;;5.28;;
64235;SDS011;50564;47.402;9.740;2023-12-20T13:13:28;6.90;;;4.20;;
64235;SDS011;50564;47.402;9.740;2023-12-20T13:18:29;6.82;;;3.78;;
64235;SDS011;50564;47.402;9.740;2023-12-20T13:23:29;6.85;;;4.13;;
64235;SDS011;50564;47.402;9.740;2023-12-20T13:28:30;6.68;;;4.05;;
64235;SDS011;50564;47.402;9.740;2023-12-20T13:33:31;4.85;;;3.58;;
64235;SDS011;50564;47.402;9.740;2023-12-20T13:38:32;9.15;;;6.10;;
64235;SDS011;50564;47.402;9.740;2023-12-20T13:43:36;8.07;;;5.68;;
64235;SDS011;50564;47.402;9.740;2023-12-20T13:48:36;10.98;;;7.47;;
64235;SDS011;50564;47.402;9.740;2023-12-20T13:53:38;7.40;;;3.25;;
64235;SDS011;50564;47.402;9.740;2023-12-20T13:58:57;4.20;;;2.83;;
64235;SDS011;50564;47.402;9.740;2023-12-20T14:05:07;5.82;;;2.40;;
64235;SDS011;50564;47.402;9.740;2023-12-20T14:10:11;7.38;;;3.88;;
64235;SDS011;50564;47.402;9.740;2023-12-20T14:15:13;8.98;;;4.18;;
64235;SDS011;50564;47.402;9.740;2023-12-20T14:20:14;4.95;;;3.35;;
64235;SDS011;50564;47.402;9.740;2023-12-20T14:25:16;10.07;;;5.53;;
64235;SDS011;50564;47.402;9.740;2023-12-20T14:30:17;10.52;;;8.23;;
64235;SDS011;50564;47.402;9.740;2023-12-20T14:35:20;6.65;;;4.93;;
64235;SDS011;50564;47.402;9.740;2023-12-20T14:40:20;6.35;;;4.05;;
64235;SDS011;50564;47.402;9.740;2023-12-20T14:45:21;5.60;;;3.15;;
64235;SDS011;50564;47.402;9.740;2023-12-20T14:50:22;5.38;;;2.97;;
64235;SDS011;50564;47.402;9.740;2023-12-20T14:55:23;5.95;;;4.05;;
64235;SDS011;50564;47.402;9.740;2023-12-20T15:00:23;10.45;;;5.22;;
64235;SDS011;50564;47.402;9.740;2023-12-20T15:05:24;11.18;;;6.20;;
64235;SDS011;50564;47.402;9.740;2023-12-20T15:10:25;5.07;;;2.67;;
64235;SDS011;50564;47.402;9.740;2023-12-20T15:15:26;4.28;;;2.70;;
64235;SDS011;50564;47.402;9.740;2023-12-20T15:20:28;5.35;;;2.50;;
64235;SDS011;50564;47.402;9.740;2023-12-20T15:25:29;6.57;;;4.43;;
64235;SDS011;50564;47.402;9.740;2023-12-20T15:30:30;3.75;;;2.70;;
64235;SDS011;50564;47.402;9.740;2023-12-20T15:35:31;4.78;;;2.88;;
64235;SDS011;50564;47.402;9.740;2023-12-20T15:40:32;7.18;;;4.60;;
64235;SDS011;50564;47.402;9.740;2023-12-20T15:45:32;13.27;;;7.10;;
64235;SDS011;50564;47.402;9.740;2023-12-20T15:50:33;6.63;;;3.92;;
64235;SDS011;50564;47.402;9.740;2023-12-20T15:55:34;10.18;;;4.43;;
64235;SDS011;50564;47.402;9.740;2023-12-20T16:00:35;7.28;;;4.70;;
64235;SDS011;50564;47.402;9.740;2023-12-20T16:05:35;8.38;;;3.97;;
64235;SDS011;50564;47.402;9.740;2023-12-20T16:10:36;6.35;;;4.03;;
64235;SDS011;50564;47.402;9.740;2023-12-20T16:15:37;7.93;;;4.30;;
64235;SDS011;50564;47.402;9.740;2023-12-20T16:20:38;4.90;;;3.22;;
64235;SDS011;50564;47.402;9.740;2023-12-20T16:25:39;5.90;;;2.83;;
64235;SDS011;50564;47.402;9.740;2023-12-20T16:30:39;6.72;;;2.90;;
64235;SDS011;50564;47.402;9.740;2023-12-20T16:35:40;8.98;;;5.28;;
64235;SDS011;50564;47.402;9.740;2023-12-20T16:40:41;9.02;;;4.57;;
64235;SDS011;50564;47.402;9.740;2023-12-20T16:45:43;4.63;;;2.88;;
64235;SDS011;50564;47.402;9.740;2023-12-20T16:50:44;7.15;;;4.22;;
64235;SDS011;50564;47.402;9.740;2023-12-20T16:55:47;3.80;;;3.00;;
64235;SDS011;50564;47.402;9.740;2023-12-20T17:00:48;3.92;;;2.92;;
64235;SDS011;50564;47.402;9.740;2023-12-20T17:11:29;7.70;;;3.20;;
64235;SDS011;50564;47.402;9.740;2023-12-20T17:16:30;4.88;;;2.75;;
64235;SDS011;50564;47.402;9.740;2023-12-20T17:21:31;5.35;;;2.63;;
64235;SDS011;50564;47.402;9.740;2023-12-20T17:26:31;8.73;;;4.10;;
64235;SDS011;50564;47.402;9.740;2023-12-20T17:31:32;12.57;;;6.63;;
64235;SDS011;50564;47.402;9.740;2023-12-20T17:36:33;6.68;;;3.92;;
64235;SDS011;50564;47.402;9.740;2023-12-20T17:41:33;5.88;;;3.17;;
64235;SDS011;50564;47.402;9.740;2023-12-20T17:46:35;14.88;;;8.65;;
64235;SDS011;50564;47.402;9.740;2023-12-20T17:51:36;7.30;;;4.68;;
64235;SDS011;50564;47.402;9.740;2023-12-20T17:56:39;9.00;;;6.40;;
64235;SDS011;50564;47.402;9.740;2023-12-20T18:01:40;11.27;;;6.40;;
64235;SDS011;50564;47.402;9.740;2023-12-20T18:13:04;8.52;;;3.20;;
64235;SDS011;50564;47.402;9.740;2023-12-20T18:25:00;10.15;;;4.72;;
64235;SDS011;50564;47.402;9.740;2023-12-20T18:35:52;7.07;;;3.47;;
64235;SDS011;50564;47.402;9.740;2023-12-20T18:41:00;7.80;;;5.18;;
64235;SDS011;50564;47.402;9.740;2023-12-20T18:46:01;7.30;;;4.32;;
64235;SDS011;50564;47.402;9.740;2023-12-20T18:51:10;9.57;;;4.00;;
64235;SDS011;50564;47.402;9.740;2023-12-20T18:56:14;7.80;;;2.92;;
64235;SDS011;50564;47.402;9.740;2023-12-20T19:01:16;6.32;;;3.25;;
64235;SDS011;50564;47.402;9.740;2023-12-20T19:06:18;7.25;;;3.47;;
64235;SDS011;50564;47.402;9.740;2023-12-20T19:11:21;5.88;;;3.17;;
64235;SDS011;50564;47.402;9.740;2023-12-20T19:16:23;8.27;;;3.15;;
64235;SDS011;50564;47.402;9.740;2023-12-20T19:21:24;5.25;;;3.40;;
64235;SDS011;50564;47.402;9.740;2023-12-20T19:26:26;5.93;;;2.80;;
64235;SDS011;50564;47.402;9.740;2023-12-20T19:31:28;6.20;;;3.38;;
64235;SDS011;50564;47.402;9.740;2023-12-20T19:36:33;12.63;;;6.18;;
64235;SDS011;50564;47.402;9.740;2023-12-20T19:41:34;10.38;;;4.78;;
64235;SDS011;50564;47.402;9.740;2023-12-20T19:46:36;8.13;;;2.22;;
64235;SDS011;50564;47.402;9.740;2023-12-20T19:51:39;6.38;;;3.35;;
64235;SDS011;50564;47.402;9.740;2023-12-20T19:56:42;7.95;;;3.53;;
64235;SDS011;50564;47.402;9.740;2023-12-20T20:01:44;12.68;;;6.60;;
64235;SDS011;50564;47.402;9.740;2023-12-20T20:06:46;12.93;;;4.65;;
64235;SDS011;50564;47.402;9.740;2023-12-20T20:11:51;7.05;;;3.55;;
64235;SDS011;50564;47.402;9.740;2023-12-20T20:16:55;7.28;;;3.13;;
64235;SDS011;50564;47.402;9.740;2023-12-20T20:21:58;12.02;;;3.80;;
64235;SDS011;50564;47.402;9.740;2023-12-20T20:27:00;12.18;;;5.30;;
64235;SDS011;50564;47.402;9.740;2023-12-20T20:32:04;10.00;;;4.97;;
64235;SDS011;50564;47.402;9.740;2023-12-20T20:37:06;8.93;;;2.90;;
64235;SDS011;50564;47.402;9.740;2023-12-20T20:42:08;9.13;;;3.85;;
64235;SDS011;50564;47.402;9.740;2023-12-20T20:47:12;5.47;;;2.67;;
64235;SDS011;50564;47.402;9.740;2023-12-20T20:52:14;6.35;;;2.30;;
64235;SDS011;50564;47.402;9.740;2023-12-20T20:57:16;2.47;;;1.40;;
64235;SDS011;50564;47.402;9.740;2023-12-20T21:02:18;4.32;;;2.15;;
64235;SDS011;50564;47.402;9.740;2023-12-20T21:07:20;4.97;;;1.80;;
64235;SDS011;50564;47.402;9.740;2023-12-20T21:12:21;4.20;;;1.63;;
64235;SDS011;50564;47.402;9.740;2023-12-20T21:17:21;5.43;;;1.83;;
64235;SDS011;50564;47.402;9.740;2023-12-20T21:22:22;2.83;;;1.17;;
64235;SDS011;50564;47.402;9.740;2023-12-20T21:27:23;2.22;;;1.48;;
64235;SDS011;50564;47.402;9.740;2023-12-20T21:32:24;3.92;;;1.70;;
64235;SDS011;50564;47.402;9.740;2023-12-20T21:37:25;3.53;;;1.48;;
64235;SDS011;50564;47.402;9.740;2023-12-20T21:42:25;4.13;;;1.48;;
64235;SDS011;50564;47.402;9.740;2023-12-20T21:47:26;1.50;;;1.05;;
64235;SDS011;50564;47.402;9.740;2023-12-20T21:52:27;3.28;;;1.67;;
64235;SDS011;50564;47.402;9.740;2023-12-20T22:03:08;2.83;;;1.48;;
64235;SDS011;50564;47.402;9.740;2023-12-20T22:08:18;1.38;;;1.25;;
64235;SDS011;50564;47.402;9.740;2023-12-20T22:13:56;3.20;;;1.30;;
64235;SDS011;50564;47.402;9.740;2023-12-20T22:18:57;5.13;;;1.30;;
64235;SDS011;50564;47.402;9.740;2023-12-20T22:24:00;1.85;;;1.10;;
64235;SDS011;50564;47.402;9.740;2023-12-20T22:29:00;4.65;;;1.50;;
64235;SDS011;50564;47.402;9.740;2023-12-20T22:34:02;2.03;;;1.48;;
64235;SDS011;50564;47.402;9.740;2023-12-20T22:39:02;1.60;;;1.20;;
64235;SDS011;50564;47.402;9.740;2023-12-20T22:44:03;2.17;;;1.20;;
64235;SDS011;50564;47.402;9.740;2023-12-20T22:49:04;2.83;;;1.40;;
64235;SDS011;50564;47.402;9.740;2023-12-20T22:54:05;3.28;;;1.45;;
64235;SDS011;50564;47.402;9.740;2023-12-20T22:59:05;2.58;;;1.75;;
64235;SDS011;50564;47.402;9.740;2023-12-20T23:04:06;7.00;;;2.30;;
64235;SDS011;50564;47.402;9.740;2023-12-20T23:09:07;5.22;;;2.35;;
64235;SDS011;50564;47.402;9.740;2023-12-20T23:14:08;5.97;;;2.75;;
64235;SDS011;50564;47.402;9.740;2023-12-20T23:19:24;5.40;;;3.35;;
64235;SDS011;50564;47.402;9.740;2023-12-20T23:24:30;3.58;;;2.15;;
64235;SDS011;50564;47.402;9.740;2023-12-20T23:29:31;3.25;;;1.42;;
64235;SDS011;50564;47.402;9.740;2023-12-20T23:40:30;3.72;;;1.70;;
64235;SDS011;50564;47.402;9.740;2023-12-20T23:45:31;5.20;;;1.88;;
64235;SDS011;50564;47.402;9.740;2023-12-20T23:50:33;3.58;;;1.80;;
64235;SDS011;50564;47.402;9.740;2023-12-20T23:55:53;2.70;;;1.58;;
